createdAt,value
2023-05-02T00:02:03.437Z,98104.59
2023-05-02T00:07:06.007Z,98104.97
2023-05-02T00:12:07.841Z,98099.56
2023-05-02T00:17:09.758Z,98106.78
2023-05-02T00:22:11.703Z,98104.56
2023-05-02T00:27:14.444Z,98103.13
2023-05-02T00:32:16.293Z,98104.31
2023-05-02T00:37:18.154Z,98108.09
2023-05-02T00:42:20.076Z,98110.88
2023-05-02T00:47:25.247Z,98104.88
2023-05-02T00:52:28.485Z,98100.63
2023-05-02T00:57:30.421Z,98109.47
2023-05-02T01:02:44.013Z,98112.06
2023-05-02T01:08:30.150Z,98109.28
2023-05-02T01:13:38.025Z,98118.09
2023-05-02T01:18:43.750Z,98117.50
2023-05-02T01:24:03.325Z,98109.03
2023-05-02T01:29:08.660Z,98103.19
2023-05-02T01:34:11.912Z,98105.81
2023-05-02T01:39:19.309Z,98112.03
2023-05-02T01:44:23.632Z,98114.03
2023-05-02T01:49:27.675Z,98110.78
2023-05-02T01:54:30.987Z,98102.34
2023-05-02T01:59:34.098Z,98107.56
2023-05-02T02:04:38.089Z,98110.19
2023-05-02T02:09:41.051Z,98113.41
2023-05-02T02:14:50.205Z,98111.16
2023-05-02T02:19:56.320Z,98112.34
2023-05-02T02:24:59.436Z,98118.75
2023-05-02T02:30:01.447Z,98123.97
2023-05-02T02:35:04.261Z,98121.75
2023-05-02T02:40:17.565Z,98133.19
2023-05-02T02:45:46.461Z,98135.97
2023-05-02T02:51:16.166Z,98144.78
2023-05-02T02:56:27.547Z,98152.00
2023-05-02T03:01:32.675Z,98160.81
2023-05-02T03:06:34.809Z,98166.22
2023-05-02T03:11:36.965Z,98167.22
2023-05-02T03:16:42.010Z,98171.81
2023-05-02T03:21:49.396Z,98178.84
2023-05-02T03:26:59.163Z,98182.63
2023-05-02T03:32:07.053Z,98190.81
2023-05-02T03:37:10.542Z,98206.84
2023-05-02T03:42:12.642Z,98204.59
2023-05-02T03:47:14.729Z,98208.41
2023-05-02T03:52:18.361Z,98202.75
2023-05-02T03:57:21.426Z,98205.72
2023-05-02T04:02:23.606Z,98215.53
2023-05-02T04:07:26.127Z,98224.69
2023-05-02T04:12:37.918Z,98232.91
2023-05-02T04:17:40.565Z,98242.69
2023-05-02T04:22:46.454Z,98246.47
2023-05-02T04:27:48.289Z,98255.09
2023-05-02T04:32:53.820Z,98265.53
2023-05-02T04:37:56.981Z,98278.56
2023-05-02T04:42:59.424Z,98288.00
2023-05-02T04:48:07.232Z,98293.06
2023-05-02T04:53:09.171Z,98309.69
2023-05-02T04:58:12.829Z,98317.34
2023-05-02T05:03:16.349Z,98320.56
2023-05-02T05:08:21.759Z,98326.59
2023-05-02T05:13:23.856Z,98334.22
2023-05-02T05:18:26.217Z,98346.91
2023-05-02T05:23:28.521Z,98351.75
2023-05-02T05:28:30.381Z,98354.81
2023-05-02T05:33:32.502Z,98359.22
2023-05-02T05:38:36.593Z,98368.03
2023-05-02T05:43:39.756Z,98368.22
2023-05-02T05:48:42.881Z,98380.09
2023-05-02T05:53:45.476Z,98383.97
2023-05-02T05:58:49.000Z,98389.81
2023-05-02T06:03:52.344Z,98400.25
2023-05-02T06:08:54.979Z,98408.34
2023-05-02T06:13:57.270Z,98418.22
2023-05-02T06:18:59.610Z,98421.56
2023-05-02T06:24:01.382Z,98427.84
2023-05-02T06:29:03.855Z,98439.91
2023-05-02T06:34:05.679Z,98445.22
2023-05-02T06:39:07.700Z,98461.59
2023-05-02T06:44:09.689Z,98465.81
2023-05-02T06:49:11.711Z,98471.84
2023-05-02T06:54:14.913Z,98474.09
2023-05-02T06:59:19.597Z,98485.63
2023-05-02T07:04:21.725Z,98488.53
2023-05-02T07:09:23.865Z,98499.34
2023-05-02T07:14:25.879Z,98504.28
2023-05-02T07:19:27.791Z,98512.38
2023-05-02T07:24:30.130Z,98513.63
2023-05-02T07:29:32.102Z,98523.63
2023-05-02T07:34:34.078Z,98533.00
2023-05-02T07:39:35.948Z,98539.13
2023-05-02T07:44:37.906Z,98545.22
2023-05-02T07:49:40.091Z,98560.97
2023-05-02T07:54:42.441Z,98574.56
2023-05-02T07:59:45.502Z,98574.56
2023-05-02T08:04:48.294Z,98575.47
2023-05-02T08:09:50.534Z,98590.91
2023-05-02T08:14:52.426Z,98594.59
2023-05-02T08:19:54.426Z,98614.41
2023-05-02T08:24:56.377Z,98608.56
2023-05-02T08:30:00.143Z,98612.50
2023-05-02T08:35:03.333Z,98614.47
2023-05-02T08:40:05.888Z,98619.91
2023-05-02T08:45:09.078Z,98618.75
2023-05-02T08:50:12.077Z,98630.13
2023-05-02T08:55:14.851Z,98639.78
2023-05-02T09:00:17.817Z,98639.63
2023-05-02T09:05:24.120Z,98635.75
2023-05-02T09:10:28.824Z,98643.91
2023-05-02T09:15:30.934Z,98657.19
2023-05-02T09:20:41.166Z,98651.84
2023-05-02T09:25:43.109Z,98669.84
2023-05-02T09:30:45.230Z,98673.84
2023-05-02T09:35:55.753Z,98671.69
2023-05-02T09:40:57.674Z,98667.97
2023-05-02T09:46:08.260Z,98678.97
2023-05-02T09:51:18.448Z,98679.88
2023-05-02T09:56:21.654Z,98685.56
2023-05-02T10:01:24.491Z,98694.53
2023-05-02T10:06:28.414Z,98691.38
2023-05-02T10:11:32.480Z,98706.88
2023-05-02T10:16:38.983Z,98703.94
2023-05-02T10:21:44.263Z,98704.88
2023-05-02T10:26:46.848Z,98716.34
2023-05-02T10:31:50.755Z,98712.00
2023-05-02T10:36:52.751Z,98723.78
2023-05-02T10:41:58.989Z,98728.31
2023-05-02T10:47:01.245Z,98725.09
2023-05-02T10:52:27.769Z,98727.41
2023-05-02T10:57:29.798Z,98725.09
2023-05-02T11:02:31.717Z,98739.66
2023-05-02T11:07:36.234Z,98730.47
2023-05-02T11:12:48.645Z,98731.72
2023-05-02T11:18:07.795Z,98731.13
2023-05-02T11:23:30.648Z,98728.28
2023-05-02T11:28:46.036Z,98733.00
2023-05-02T11:34:02.749Z,98729.88
2023-05-02T11:39:18.685Z,98736.19
2023-05-02T11:44:20.649Z,98738.53
2023-05-02T11:49:22.622Z,98732.75
2023-05-02T11:54:24.523Z,98736.22
2023-05-02T11:59:26.777Z,98729.53
2023-05-02T12:04:28.607Z,98730.97
2023-05-02T12:09:30.503Z,98743.75
2023-05-02T12:14:36.502Z,98744.41
2023-05-02T12:19:38.513Z,98741.16
2023-05-02T12:24:41.412Z,98745.00
2023-05-02T12:29:46.165Z,98741.59
2023-05-02T12:34:47.979Z,98735.78
2023-05-02T12:39:50.413Z,98739.44
2023-05-02T12:44:53.417Z,98730.94
2023-05-02T12:49:57.584Z,98738.59
2023-05-02T12:55:18.813Z,98746.22
2023-05-02T13:00:21.310Z,98752.22
2023-05-02T13:05:23.358Z,98750.38
2023-05-02T13:10:26.361Z,98764.25
2023-05-02T13:15:28.314Z,98757.28
2023-05-02T13:20:30.118Z,98755.59
2023-05-02T13:25:31.852Z,98749.44
2023-05-02T13:30:33.685Z,98749.69
2023-05-02T13:35:35.775Z,98754.56
2023-05-02T13:40:37.645Z,98755.78
2023-05-02T13:45:42.400Z,98756.44
2023-05-02T13:50:44.953Z,98753.63
2023-05-02T13:55:46.797Z,98762.69
2023-05-02T14:00:49.038Z,98754.63
2023-05-02T14:05:51.127Z,98764.31
2023-05-02T14:10:53.253Z,98764.91
2023-05-02T14:15:55.402Z,98764.66
2023-05-02T14:21:00.066Z,98764.00
2023-05-02T14:26:02.708Z,98767.50
2023-05-02T14:31:04.738Z,98770.97
2023-05-02T14:36:07.346Z,98761.66
2023-05-02T14:41:10.120Z,98769.91
2023-05-02T14:46:12.146Z,98772.19
2023-05-02T14:51:14.070Z,98775.34
2023-05-02T14:56:17.410Z,98781.44
2023-05-02T15:01:20.910Z,98801.22
2023-05-02T15:06:23.286Z,98812.22
2023-05-02T15:11:25.683Z,98836.50
2023-05-02T15:16:27.807Z,98831.59
2023-05-02T15:21:31.024Z,98841.66
2023-05-02T15:26:32.954Z,98849.50
2023-05-02T15:31:35.001Z,98858.00
2023-05-02T15:36:40.853Z,98866.09
2023-05-02T15:41:42.805Z,98870.06
2023-05-02T15:46:47.102Z,98866.91
2023-05-02T15:51:49.051Z,98878.09
2023-05-02T15:56:51.195Z,98884.97
2023-05-02T16:01:53.066Z,98883.59
2023-05-02T16:06:55.151Z,98886.13
2023-05-02T16:11:58.040Z,98902.34
2023-05-02T16:16:59.896Z,98913.16
2023-05-02T16:22:02.480Z,98908.28
2023-05-02T16:27:04.823Z,98911.41
2023-05-02T16:32:08.270Z,98921.13
2023-05-02T16:37:10.265Z,98924.44
2023-05-02T16:42:12.477Z,98931.66
2023-05-02T16:47:14.615Z,98933.81
2023-05-02T16:52:16.549Z,98946.41
2023-05-02T16:57:19.960Z,98948.56
2023-05-02T17:02:22.310Z,98950.53
2023-05-02T17:07:24.357Z,98956.75
2023-05-02T17:12:26.256Z,98962.31
2023-05-02T17:17:28.106Z,98968.25
2023-05-02T17:22:29.905Z,98975.44
2023-05-02T17:27:31.864Z,98984.78
2023-05-02T17:32:34.982Z,98992.66
2023-05-02T17:37:38.372Z,98994.47
2023-05-02T17:42:43.658Z,99000.03
2023-05-02T17:47:45.860Z,99011.00
2023-05-02T17:52:47.719Z,99018.34
2023-05-02T17:57:49.556Z,99022.28
2023-05-02T18:02:51.492Z,99025.06
2023-05-02T18:07:53.556Z,99032.41
2023-05-02T18:12:55.422Z,99035.03
2023-05-02T18:17:57.804Z,99050.38
2023-05-02T18:23:01.397Z,99051.72
2023-05-02T18:28:04.587Z,99059.38
2023-05-02T18:33:08.460Z,99061.50
2023-05-02T18:38:10.846Z,99071.13
2023-05-02T18:43:12.906Z,99072.44
2023-05-02T18:48:14.877Z,99072.59
2023-05-02T18:53:16.691Z,99088.28
2023-05-02T18:58:18.657Z,99097.41
2023-05-02T19:03:20.568Z,99097.09
2023-05-02T19:08:22.735Z,99086.16
2023-05-02T19:13:27.107Z,99096.94
2023-05-02T19:18:28.966Z,99097.75
2023-05-02T19:23:31.460Z,99104.94
2023-05-02T19:28:33.304Z,99112.44
2023-05-02T19:33:35.387Z,99126.63
2023-05-02T19:38:41.806Z,99120.25
2023-05-02T19:43:44.179Z,99122.72
2023-05-02T19:48:46.162Z,99122.53
2023-05-02T19:53:47.934Z,99123.34
2023-05-02T19:58:49.779Z,99137.84
2023-05-02T20:03:51.786Z,99144.34
2023-05-02T20:08:53.761Z,99146.94
2023-05-02T20:13:55.737Z,99146.28
2023-05-02T20:18:57.955Z,99149.88
2023-05-02T20:23:59.895Z,99156.88
2023-05-02T20:29:03.544Z,99159.97
2023-05-02T20:34:06.617Z,99170.22
2023-05-02T20:39:10.259Z,99177.09
2023-05-02T20:44:17.004Z,99175.28
2023-05-02T20:49:18.824Z,99181.63
2023-05-02T20:54:20.787Z,99179.19
2023-05-02T20:59:22.656Z,99189.94
2023-05-02T21:04:24.487Z,99183.91
2023-05-02T21:09:26.467Z,99188.63
2023-05-02T21:14:28.349Z,99197.72
2023-05-02T21:19:33.179Z,99201.47
2023-05-02T21:24:35.042Z,99207.50
2023-05-02T21:29:36.826Z,99205.19
2023-05-02T21:34:38.839Z,99194.75
2023-05-02T21:39:40.684Z,99197.38
2023-05-02T21:44:42.460Z,99206.31
2023-05-02T21:49:44.268Z,99205.16
2023-05-02T21:54:50.066Z,99205.31
2023-05-02T21:59:51.867Z,99212.16
2023-05-02T22:04:54.190Z,99221.59
2023-05-02T22:09:56.147Z,99216.56
2023-05-02T22:14:58.068Z,99214.09
2023-05-02T22:20:00.109Z,99221.38
2023-05-02T22:25:03.094Z,99223.16
2023-05-02T22:30:06.230Z,99220.22
2023-05-02T22:35:09.115Z,99218.88
2023-05-02T22:40:12.297Z,99220.31
2023-05-02T22:45:14.242Z,99227.47
2023-05-02T22:50:16.179Z,99229.09
2023-05-02T22:55:17.989Z,99228.44
2023-05-02T23:00:19.929Z,99229.41
2023-05-02T23:05:22.333Z,99228.75
2023-05-02T23:10:24.386Z,99232.78
2023-05-02T23:15:26.208Z,99232.59
2023-05-02T23:20:28.124Z,99228.66
2023-05-02T23:25:30.384Z,99238.41
2023-05-02T23:30:32.618Z,99231.56
2023-05-02T23:35:37.664Z,99230.06
2023-05-02T23:40:39.631Z,99241.63
2023-05-02T23:45:41.624Z,99242.44
2023-05-02T23:50:43.579Z,99242.44
2023-05-02T23:55:45.436Z,99246.16
